sensor_id;sensor_type;location;lat;lon;timestamp;P1;durP1;ratioP1;P2;durP2;ratioP2
25299;SDS011;13241;51.208;4.432;2022-08-19T00:02:01;27.95;;;13.60;;
25299;SDS011;13241;51.208;4.432;2022-08-19T00:04:30;26.98;;;14.52;;
25299;SDS011;13241;51.208;4.432;2022-08-19T00:06:59;27.30;;;14.65;;
25299;SDS011;13241;51.208;4.432;2022-08-19T00:09:27;24.90;;;13.30;;
25299;SDS011;13241;51.208;4.432;2022-08-19T00:11:56;28.10;;;14.77;;
25299;SDS011;13241;51.208;4.432;2022-08-19T00:14:25;32.60;;;14.88;;
25299;SDS011;13241;51.208;4.432;2022-08-19T00:16:53;25.85;;;14.63;;
25299;SDS011;13241;51.208;4.432;2022-08-19T00:19:21;29.42;;;14.65;;
25299;SDS011;13241;51.208;4.432;2022-08-19T00:21:49;31.33;;;15.35;;
25299;SDS011;13241;51.208;4.432;2022-08-19T00:24:17;29.38;;;13.95;;
25299;SDS011;13241;51.208;4.432;2022-08-19T00:26:45;34.58;;;15.35;;
25299;SDS011;13241;51.208;4.432;2022-08-19T00:29:13;31.75;;;15.38;;
25299;SDS011;13241;51.208;4.432;2022-08-19T00:31:42;30.95;;;15.57;;
25299;SDS011;13241;51.208;4.432;2022-08-19T00:34:10;36.35;;;18.08;;
25299;SDS011;13241;51.208;4.432;2022-08-19T00:36:38;33.05;;;16.00;;
25299;SDS011;13241;51.208;4.432;2022-08-19T00:39:06;33.25;;;15.70;;
25299;SDS011;13241;51.208;4.432;2022-08-19T00:41:34;31.27;;;15.38;;
25299;SDS011;13241;51.208;4.432;2022-08-19T00:44:04;35.20;;;15.95;;
25299;SDS011;13241;51.208;4.432;2022-08-19T00:46:34;31.85;;;15.60;;
25299;SDS011;13241;51.208;4.432;2022-08-19T00:49:06;36.63;;;16.50;;
25299;SDS011;13241;51.208;4.432;2022-08-19T00:51:51;33.58;;;15.50;;
25299;SDS011;13241;51.208;4.432;2022-08-19T00:54:23;37.78;;;16.08;;
25299;SDS011;13241;51.208;4.432;2022-08-19T00:56:57;35.88;;;15.40;;
25299;SDS011;13241;51.208;4.432;2022-08-19T00:59:25;34.55;;;16.58;;
25299;SDS011;13241;51.208;4.432;2022-08-19T01:02:15;29.63;;;14.32;;
25299;SDS011;13241;51.208;4.432;2022-08-19T01:04:43;31.13;;;15.15;;
25299;SDS011;13241;51.208;4.432;2022-08-19T01:07:10;35.25;;;15.95;;
25299;SDS011;13241;51.208;4.432;2022-08-19T01:09:42;29.30;;;14.65;;
25299;SDS011;13241;51.208;4.432;2022-08-19T01:12:12;31.45;;;15.52;;
25299;SDS011;13241;51.208;4.432;2022-08-19T01:14:40;30.88;;;15.20;;
25299;SDS011;13241;51.208;4.432;2022-08-19T01:17:08;35.38;;;14.68;;
25299;SDS011;13241;51.208;4.432;2022-08-19T01:19:38;30.75;;;15.52;;
25299;SDS011;13241;51.208;4.432;2022-08-19T01:24:42;32.03;;;16.20;;
25299;SDS011;13241;51.208;4.432;2022-08-19T01:27:15;30.38;;;15.27;;
25299;SDS011;13241;51.208;4.432;2022-08-19T01:29:43;34.72;;;17.02;;
25299;SDS011;13241;51.208;4.432;2022-08-19T01:32:12;34.72;;;17.42;;
25299;SDS011;13241;51.208;4.432;2022-08-19T01:35:00;33.08;;;16.13;;
25299;SDS011;13241;51.208;4.432;2022-08-19T01:37:28;34.78;;;17.25;;
25299;SDS011;13241;51.208;4.432;2022-08-19T01:39:56;39.65;;;16.75;;
25299;SDS011;13241;51.208;4.432;2022-08-19T01:42:24;37.67;;;16.10;;
25299;SDS011;13241;51.208;4.432;2022-08-19T01:44:56;35.03;;;15.93;;
25299;SDS011;13241;51.208;4.432;2022-08-19T01:47:23;30.58;;;14.90;;
25299;SDS011;13241;51.208;4.432;2022-08-19T01:49:50;31.58;;;15.32;;
25299;SDS011;13241;51.208;4.432;2022-08-19T01:52:17;31.02;;;15.48;;
25299;SDS011;13241;51.208;4.432;2022-08-19T01:54:46;30.58;;;14.25;;
25299;SDS011;13241;51.208;4.432;2022-08-19T01:57:13;27.05;;;13.85;;
25299;SDS011;13241;51.208;4.432;2022-08-19T01:59:41;36.25;;;14.90;;
25299;SDS011;13241;51.208;4.432;2022-08-19T02:02:10;34.40;;;14.57;;
25299;SDS011;13241;51.208;4.432;2022-08-19T02:04:38;30.80;;;14.82;;
25299;SDS011;13241;51.208;4.432;2022-08-19T02:07:06;27.38;;;14.13;;
25299;SDS011;13241;51.208;4.432;2022-08-19T02:09:34;34.90;;;15.10;;
25299;SDS011;13241;51.208;4.432;2022-08-19T02:12:02;33.50;;;14.15;;
25299;SDS011;13241;51.208;4.432;2022-08-19T02:14:30;27.80;;;12.73;;
25299;SDS011;13241;51.208;4.432;2022-08-19T02:16:59;27.05;;;14.50;;
25299;SDS011;13241;51.208;4.432;2022-08-19T02:19:25;25.02;;;12.85;;
25299;SDS011;13241;51.208;4.432;2022-08-19T02:21:53;30.10;;;12.88;;
25299;SDS011;13241;51.208;4.432;2022-08-19T02:24:20;25.27;;;12.52;;
25299;SDS011;13241;51.208;4.432;2022-08-19T02:26:47;29.15;;;13.52;;
25299;SDS011;13241;51.208;4.432;2022-08-19T02:29:14;31.30;;;13.70;;
25299;SDS011;13241;51.208;4.432;2022-08-19T02:31:41;24.35;;;12.75;;
25299;SDS011;13241;51.208;4.432;2022-08-19T02:34:08;30.50;;;14.38;;
25299;SDS011;13241;51.208;4.432;2022-08-19T02:36:35;28.33;;;13.00;;
25299;SDS011;13241;51.208;4.432;2022-08-19T02:39:08;28.80;;;13.32;;
25299;SDS011;13241;51.208;4.432;2022-08-19T02:41:37;33.92;;;14.88;;
25299;SDS011;13241;51.208;4.432;2022-08-19T02:44:04;27.52;;;12.93;;
25299;SDS011;13241;51.208;4.432;2022-08-19T02:46:55;25.73;;;13.00;;
25299;SDS011;13241;51.208;4.432;2022-08-19T02:49:22;26.27;;;13.30;;
25299;SDS011;13241;51.208;4.432;2022-08-19T02:51:50;34.28;;;14.25;;
25299;SDS011;13241;51.208;4.432;2022-08-19T02:54:19;29.77;;;14.50;;
25299;SDS011;13241;51.208;4.432;2022-08-19T02:56:49;32.13;;;14.35;;
25299;SDS011;13241;51.208;4.432;2022-08-19T02:59:17;29.35;;;14.00;;
25299;SDS011;13241;51.208;4.432;2022-08-19T03:01:48;31.15;;;13.98;;
25299;SDS011;13241;51.208;4.432;2022-08-19T03:04:15;30.85;;;14.43;;
25299;SDS011;13241;51.208;4.432;2022-08-19T03:06:43;27.10;;;13.95;;
25299;SDS011;13241;51.208;4.432;2022-08-19T03:09:12;31.92;;;13.32;;
25299;SDS011;13241;51.208;4.432;2022-08-19T03:11:40;27.90;;;13.32;;
25299;SDS011;13241;51.208;4.432;2022-08-19T03:14:07;27.58;;;12.73;;
25299;SDS011;13241;51.208;4.432;2022-08-19T03:16:41;30.35;;;12.60;;
25299;SDS011;13241;51.208;4.432;2022-08-19T03:19:10;28.48;;;12.23;;
25299;SDS011;13241;51.208;4.432;2022-08-19T03:21:38;34.22;;;13.00;;
25299;SDS011;13241;51.208;4.432;2022-08-19T03:24:07;26.55;;;12.45;;
25299;SDS011;13241;51.208;4.432;2022-08-19T03:26:38;25.58;;;12.55;;
25299;SDS011;13241;51.208;4.432;2022-08-19T03:29:08;28.90;;;12.98;;
25299;SDS011;13241;51.208;4.432;2022-08-19T03:31:39;26.95;;;13.00;;
25299;SDS011;13241;51.208;4.432;2022-08-19T03:34:22;27.65;;;11.88;;
25299;SDS011;13241;51.208;4.432;2022-08-19T03:36:54;25.10;;;12.43;;
25299;SDS011;13241;51.208;4.432;2022-08-19T03:39:23;24.95;;;11.32;;
25299;SDS011;13241;51.208;4.432;2022-08-19T03:41:52;35.28;;;13.30;;
25299;SDS011;13241;51.208;4.432;2022-08-19T03:44:42;29.05;;;11.77;;
25299;SDS011;13241;51.208;4.432;2022-08-19T03:47:10;25.02;;;12.02;;
25299;SDS011;13241;51.208;4.432;2022-08-19T03:49:43;24.73;;;11.70;;
25299;SDS011;13241;51.208;4.432;2022-08-19T03:52:10;26.35;;;11.75;;
25299;SDS011;13241;51.208;4.432;2022-08-19T03:54:38;24.80;;;11.88;;
25299;SDS011;13241;51.208;4.432;2022-08-19T03:57:05;29.90;;;11.80;;
25299;SDS011;13241;51.208;4.432;2022-08-19T03:59:37;23.45;;;10.52;;
25299;SDS011;13241;51.208;4.432;2022-08-19T04:02:08;25.17;;;10.30;;
25299;SDS011;13241;51.208;4.432;2022-08-19T04:04:37;22.67;;;10.18;;
25299;SDS011;13241;51.208;4.432;2022-08-19T04:07:06;19.50;;;8.80;;
25299;SDS011;13241;51.208;4.432;2022-08-19T04:09:34;24.15;;;9.98;;
25299;SDS011;13241;51.208;4.432;2022-08-19T04:12:02;24.10;;;10.00;;
25299;SDS011;13241;51.208;4.432;2022-08-19T04:14:31;23.98;;;9.52;;
25299;SDS011;13241;51.208;4.432;2022-08-19T04:17:00;22.48;;;9.48;;
25299;SDS011;13241;51.208;4.432;2022-08-19T04:19:29;21.90;;;9.48;;
25299;SDS011;13241;51.208;4.432;2022-08-19T04:21:58;20.90;;;8.50;;
25299;SDS011;13241;51.208;4.432;2022-08-19T04:24:25;20.52;;;9.48;;
25299;SDS011;13241;51.208;4.432;2022-08-19T04:26:52;27.30;;;9.32;;
25299;SDS011;13241;51.208;4.432;2022-08-19T04:29:21;29.08;;;9.60;;
25299;SDS011;13241;51.208;4.432;2022-08-19T04:31:51;23.45;;;9.55;;
25299;SDS011;13241;51.208;4.432;2022-08-19T04:34:21;21.27;;;9.02;;
25299;SDS011;13241;51.208;4.432;2022-08-19T04:36:51;22.42;;;9.57;;
25299;SDS011;13241;51.208;4.432;2022-08-19T04:39:21;17.67;;;9.18;;
25299;SDS011;13241;51.208;4.432;2022-08-19T04:42:11;22.23;;;9.43;;
25299;SDS011;13241;51.208;4.432;2022-08-19T04:44:58;20.08;;;8.57;;
25299;SDS011;13241;51.208;4.432;2022-08-19T04:47:26;15.52;;;9.10;;
25299;SDS011;13241;51.208;4.432;2022-08-19T04:50:14;19.98;;;8.23;;
25299;SDS011;13241;51.208;4.432;2022-08-19T04:52:44;15.70;;;8.48;;
25299;SDS011;13241;51.208;4.432;2022-08-19T04:55:11;23.00;;;9.02;;
25299;SDS011;13241;51.208;4.432;2022-08-19T04:57:42;16.77;;;8.50;;
25299;SDS011;13241;51.208;4.432;2022-08-19T05:00:09;17.63;;;8.10;;
25299;SDS011;13241;51.208;4.432;2022-08-19T05:02:38;16.58;;;7.57;;
25299;SDS011;13241;51.208;4.432;2022-08-19T05:05:06;18.48;;;7.70;;
25299;SDS011;13241;51.208;4.432;2022-08-19T05:07:40;19.85;;;9.65;;
25299;SDS011;13241;51.208;4.432;2022-08-19T05:10:08;16.73;;;7.93;;
25299;SDS011;13241;51.208;4.432;2022-08-19T05:12:35;21.23;;;7.30;;
25299;SDS011;13241;51.208;4.432;2022-08-19T05:15:03;19.73;;;6.97;;
25299;SDS011;13241;51.208;4.432;2022-08-19T05:17:34;17.25;;;7.53;;
25299;SDS011;13241;51.208;4.432;2022-08-19T05:20:07;19.40;;;7.30;;
25299;SDS011;13241;51.208;4.432;2022-08-19T05:23:10;22.48;;;7.68;;
25299;SDS011;13241;51.208;4.432;2022-08-19T05:25:48;13.50;;;6.28;;
25299;SDS011;13241;51.208;4.432;2022-08-19T05:28:16;16.80;;;7.78;;
25299;SDS011;13241;51.208;4.432;2022-08-19T05:30:44;14.00;;;7.40;;
25299;SDS011;13241;51.208;4.432;2022-08-19T05:33:25;15.98;;;6.70;;
25299;SDS011;13241;51.208;4.432;2022-08-19T05:38:48;13.32;;;6.60;;
25299;SDS011;13241;51.208;4.432;2022-08-19T05:41:16;16.83;;;6.43;;
25299;SDS011;13241;51.208;4.432;2022-08-19T05:43:43;25.40;;;10.07;;
25299;SDS011;13241;51.208;4.432;2022-08-19T05:46:20;18.67;;;7.53;;
25299;SDS011;13241;51.208;4.432;2022-08-19T05:48:54;27.50;;;9.93;;
25299;SDS011;13241;51.208;4.432;2022-08-19T05:51:24;15.05;;;6.75;;
25299;SDS011;13241;51.208;4.432;2022-08-19T05:53:54;14.68;;;6.53;;
25299;SDS011;13241;51.208;4.432;2022-08-19T05:56:21;16.05;;;7.05;;
25299;SDS011;13241;51.208;4.432;2022-08-19T05:58:48;15.02;;;6.88;;
25299;SDS011;13241;51.208;4.432;2022-08-19T06:01:16;20.30;;;7.00;;
25299;SDS011;13241;51.208;4.432;2022-08-19T06:03:44;15.00;;;6.05;;
25299;SDS011;13241;51.208;4.432;2022-08-19T06:06:13;16.52;;;6.63;;
25299;SDS011;13241;51.208;4.432;2022-08-19T06:08:42;10.18;;;5.65;;
25299;SDS011;13241;51.208;4.432;2022-08-19T06:11:13;16.05;;;6.18;;
25299;SDS011;13241;51.208;4.432;2022-08-19T06:13:40;14.10;;;6.50;;
25299;SDS011;13241;51.208;4.432;2022-08-19T06:16:07;14.20;;;6.85;;
25299;SDS011;13241;51.208;4.432;2022-08-19T06:18:36;15.63;;;5.75;;
25299;SDS011;13241;51.208;4.432;2022-08-19T06:21:03;16.77;;;5.95;;
25299;SDS011;13241;51.208;4.432;2022-08-19T06:26:22;17.13;;;5.95;;
25299;SDS011;13241;51.208;4.432;2022-08-19T06:28:50;17.90;;;6.05;;
25299;SDS011;13241;51.208;4.432;2022-08-19T06:31:21;12.63;;;4.97;;
25299;SDS011;13241;51.208;4.432;2022-08-19T06:33:51;16.52;;;5.63;;
25299;SDS011;13241;51.208;4.432;2022-08-19T06:36:20;13.50;;;5.82;;
25299;SDS011;13241;51.208;4.432;2022-08-19T06:38:53;16.65;;;6.45;;
25299;SDS011;13241;51.208;4.432;2022-08-19T06:41:20;33.75;;;12.05;;
25299;SDS011;13241;51.208;4.432;2022-08-19T06:43:47;40.80;;;17.10;;
25299;SDS011;13241;51.208;4.432;2022-08-19T06:46:19;24.90;;;9.38;;
25299;SDS011;13241;51.208;4.432;2022-08-19T06:48:47;21.77;;;8.82;;
25299;SDS011;13241;51.208;4.432;2022-08-19T06:51:16;26.23;;;7.15;;
25299;SDS011;13241;51.208;4.432;2022-08-19T06:53:48;21.05;;;8.43;;
25299;SDS011;13241;51.208;4.432;2022-08-19T06:56:19;17.58;;;6.35;;
25299;SDS011;13241;51.208;4.432;2022-08-19T06:58:53;32.05;;;7.75;;
25299;SDS011;13241;51.208;4.432;2022-08-19T07:01:20;19.83;;;5.88;;
25299;SDS011;13241;51.208;4.432;2022-08-19T07:03:47;24.02;;;6.97;;
25299;SDS011;13241;51.208;4.432;2022-08-19T07:06:16;15.43;;;6.82;;
25299;SDS011;13241;51.208;4.432;2022-08-19T07:09:06;17.10;;;6.18;;
25299;SDS011;13241;51.208;4.432;2022-08-19T07:11:35;16.02;;;6.03;;
25299;SDS011;13241;51.208;4.432;2022-08-19T07:14:02;14.13;;;5.55;;
25299;SDS011;13241;51.208;4.432;2022-08-19T07:16:30;15.32;;;6.00;;
25299;SDS011;13241;51.208;4.432;2022-08-19T07:18:58;18.60;;;6.13;;
25299;SDS011;13241;51.208;4.432;2022-08-19T07:21:41;18.90;;;6.40;;
25299;SDS011;13241;51.208;4.432;2022-08-19T07:24:08;10.65;;;5.80;;
25299;SDS011;13241;51.208;4.432;2022-08-19T07:26:40;15.80;;;6.78;;
25299;SDS011;13241;51.208;4.432;2022-08-19T07:29:09;14.68;;;6.38;;
25299;SDS011;13241;51.208;4.432;2022-08-19T07:31:36;15.07;;;5.65;;
25299;SDS011;13241;51.208;4.432;2022-08-19T07:34:06;14.93;;;5.90;;
25299;SDS011;13241;51.208;4.432;2022-08-19T07:36:35;13.02;;;5.35;;
25299;SDS011;13241;51.208;4.432;2022-08-19T07:39:08;13.43;;;6.25;;
25299;SDS011;13241;51.208;4.432;2022-08-19T07:41:45;16.27;;;6.80;;
25299;SDS011;13241;51.208;4.432;2022-08-19T07:44:12;12.98;;;6.18;;
25299;SDS011;13241;51.208;4.432;2022-08-19T07:46:44;13.45;;;6.07;;
25299;SDS011;13241;51.208;4.432;2022-08-19T07:49:18;14.07;;;6.32;;
25299;SDS011;13241;51.208;4.432;2022-08-19T07:51:47;13.70;;;6.25;;
25299;SDS011;13241;51.208;4.432;2022-08-19T07:54:16;20.45;;;8.07;;
25299;SDS011;13241;51.208;4.432;2022-08-19T07:56:44;15.52;;;6.80;;
25299;SDS011;13241;51.208;4.432;2022-08-19T07:59:11;17.95;;;7.05;;
25299;SDS011;13241;51.208;4.432;2022-08-19T08:01:39;16.63;;;7.35;;
25299;SDS011;13241;51.208;4.432;2022-08-19T08:04:07;29.73;;;8.55;;
25299;SDS011;13241;51.208;4.432;2022-08-19T08:06:52;19.75;;;7.22;;
25299;SDS011;13241;51.208;4.432;2022-08-19T08:09:40;71.35;;;11.65;;
25299;SDS011;13241;51.208;4.432;2022-08-19T08:12:22;32.33;;;6.97;;
25299;SDS011;13241;51.208;4.432;2022-08-19T08:15:05;14.25;;;6.15;;
25299;SDS011;13241;51.208;4.432;2022-08-19T08:17:38;20.88;;;6.20;;
25299;SDS011;13241;51.208;4.432;2022-08-19T08:20:16;15.63;;;6.32;;
25299;SDS011;13241;51.208;4.432;2022-08-19T08:22:44;16.15;;;5.88;;
25299;SDS011;13241;51.208;4.432;2022-08-19T08:25:31;13.68;;;6.55;;
25299;SDS011;13241;51.208;4.432;2022-08-19T08:28:00;14.18;;;5.95;;
25299;SDS011;13241;51.208;4.432;2022-08-19T08:30:30;11.02;;;5.30;;
25299;SDS011;13241;51.208;4.432;2022-08-19T08:32:59;12.90;;;5.88;;
25299;SDS011;13241;51.208;4.432;2022-08-19T08:35:28;22.00;;;6.28;;
25299;SDS011;13241;51.208;4.432;2022-08-19T08:37:55;15.15;;;6.80;;
25299;SDS011;13241;51.208;4.432;2022-08-19T08:43:10;13.05;;;5.50;;
25299;SDS011;13241;51.208;4.432;2022-08-19T08:46:12;13.10;;;6.22;;
25299;SDS011;13241;51.208;4.432;2022-08-19T08:51:45;18.80;;;8.23;;
25299;SDS011;13241;51.208;4.432;2022-08-19T08:54:28;16.95;;;8.35;;
25299;SDS011;13241;51.208;4.432;2022-08-19T08:57:03;14.55;;;7.13;;
25299;SDS011;13241;51.208;4.432;2022-08-19T08:59:34;18.63;;;9.13;;
25299;SDS011;13241;51.208;4.432;2022-08-19T09:02:04;12.15;;;5.03;;
25299;SDS011;13241;51.208;4.432;2022-08-19T09:04:31;14.00;;;4.70;;
25299;SDS011;13241;51.208;4.432;2022-08-19T09:15:42;9.65;;;4.72;;
25299;SDS011;13241;51.208;4.432;2022-08-19T09:18:14;26.42;;;5.53;;
25299;SDS011;13241;51.208;4.432;2022-08-19T09:20:45;25.58;;;6.05;;
25299;SDS011;13241;51.208;4.432;2022-08-19T09:23:13;12.30;;;5.40;;
25299;SDS011;13241;51.208;4.432;2022-08-19T09:25:40;8.90;;;4.88;;
25299;SDS011;13241;51.208;4.432;2022-08-19T09:28:08;12.57;;;5.50;;
25299;SDS011;13241;51.208;4.432;2022-08-19T09:30:47;17.33;;;5.30;;
25299;SDS011;13241;51.208;4.432;2022-08-19T09:33:14;40.90;;;7.38;;
25299;SDS011;13241;51.208;4.432;2022-08-19T09:35:42;108.88;;;17.08;;
25299;SDS011;13241;51.208;4.432;2022-08-19T09:38:19;79.85;;;9.85;;
25299;SDS011;13241;51.208;4.432;2022-08-19T09:40:47;80.78;;;11.50;;
25299;SDS011;13241;51.208;4.432;2022-08-19T09:43:14;49.08;;;9.32;;
25299;SDS011;13241;51.208;4.432;2022-08-19T09:45:58;54.83;;;9.77;;
25299;SDS011;13241;51.208;4.432;2022-08-19T09:48:26;57.97;;;10.85;;
25299;SDS011;13241;51.208;4.432;2022-08-19T09:50:53;75.97;;;10.88;;
25299;SDS011;13241;51.208;4.432;2022-08-19T09:53:20;14.93;;;4.72;;
25299;SDS011;13241;51.208;4.432;2022-08-19T09:55:51;15.70;;;5.57;;
25299;SDS011;13241;51.208;4.432;2022-08-19T09:58:18;19.05;;;6.32;;
25299;SDS011;13241;51.208;4.432;2022-08-19T10:00:51;11.07;;;5.35;;
25299;SDS011;13241;51.208;4.432;2022-08-19T10:03:20;10.13;;;5.15;;
25299;SDS011;13241;51.208;4.432;2022-08-19T10:05:51;15.90;;;5.60;;
25299;SDS011;13241;51.208;4.432;2022-08-19T10:08:24;9.68;;;4.43;;
25299;SDS011;13241;51.208;4.432;2022-08-19T10:10:55;9.75;;;5.10;;
25299;SDS011;13241;51.208;4.432;2022-08-19T10:13:26;14.20;;;4.63;;
25299;SDS011;13241;51.208;4.432;2022-08-19T10:15:55;14.57;;;6.13;;
25299;SDS011;13241;51.208;4.432;2022-08-19T10:18:28;11.25;;;6.15;;
25299;SDS011;13241;51.208;4.432;2022-08-19T10:21:02;10.98;;;5.30;;
25299;SDS011;13241;51.208;4.432;2022-08-19T10:23:37;21.08;;;5.47;;
25299;SDS011;13241;51.208;4.432;2022-08-19T10:26:06;16.55;;;5.93;;
25299;SDS011;13241;51.208;4.432;2022-08-19T10:28:34;18.60;;;6.07;;
25299;SDS011;13241;51.208;4.432;2022-08-19T10:31:09;11.13;;;5.55;;
25299;SDS011;13241;51.208;4.432;2022-08-19T10:33:39;10.75;;;5.93;;
25299;SDS011;13241;51.208;4.432;2022-08-19T10:36:20;21.95;;;6.32;;
25299;SDS011;13241;51.208;4.432;2022-08-19T10:38:49;12.82;;;5.45;;
25299;SDS011;13241;51.208;4.432;2022-08-19T10:41:23;9.32;;;5.07;;
25299;SDS011;13241;51.208;4.432;2022-08-19T10:43:59;9.50;;;5.10;;
25299;SDS011;13241;51.208;4.432;2022-08-19T10:46:30;13.45;;;5.45;;
25299;SDS011;13241;51.208;4.432;2022-08-19T10:48:59;15.93;;;5.53;;
25299;SDS011;13241;51.208;4.432;2022-08-19T10:51:27;11.55;;;4.80;;
25299;SDS011;13241;51.208;4.432;2022-08-19T10:54:15;9.10;;;4.20;;
25299;SDS011;13241;51.208;4.432;2022-08-19T10:59:26;14.93;;;5.22;;
25299;SDS011;13241;51.208;4.432;2022-08-19T11:02:02;10.52;;;4.68;;
25299;SDS011;13241;51.208;4.432;2022-08-19T11:04:38;24.20;;;5.93;;
25299;SDS011;13241;51.208;4.432;2022-08-19T11:07:06;8.45;;;4.20;;
25299;SDS011;13241;51.208;4.432;2022-08-19T11:09:40;334.55;;;36.47;;
25299;SDS011;13241;51.208;4.432;2022-08-19T11:12:08;67.07;;;10.73;;
25299;SDS011;13241;51.208;4.432;2022-08-19T11:14:37;11.00;;;5.15;;
25299;SDS011;13241;51.208;4.432;2022-08-19T11:17:04;9.75;;;4.43;;
25299;SDS011;13241;51.208;4.432;2022-08-19T11:19:32;32.17;;;5.55;;
25299;SDS011;13241;51.208;4.432;2022-08-19T11:22:00;45.13;;;8.32;;
25299;SDS011;13241;51.208;4.432;2022-08-19T11:24:29;80.43;;;10.05;;
25299;SDS011;13241;51.208;4.432;2022-08-19T11:27:00;148.65;;;12.80;;
25299;SDS011;13241;51.208;4.432;2022-08-19T11:29:32;31.88;;;5.22;;
25299;SDS011;13241;51.208;4.432;2022-08-19T11:32:02;86.28;;;7.68;;
25299;SDS011;13241;51.208;4.432;2022-08-19T11:34:31;24.00;;;5.50;;
25299;SDS011;13241;51.208;4.432;2022-08-19T11:36:59;9.13;;;4.28;;
25299;SDS011;13241;51.208;4.432;2022-08-19T11:39:27;174.90;;;19.75;;
25299;SDS011;13241;51.208;4.432;2022-08-19T11:42:00;126.68;;;13.82;;
25299;SDS011;13241;51.208;4.432;2022-08-19T11:44:29;117.28;;;11.95;;
25299;SDS011;13241;51.208;4.432;2022-08-19T11:46:56;35.08;;;6.32;;
25299;SDS011;13241;51.208;4.432;2022-08-19T11:49:34;19.73;;;7.75;;
25299;SDS011;13241;51.208;4.432;2022-08-19T11:52:02;8.20;;;3.80;;
25299;SDS011;13241;51.208;4.432;2022-08-19T11:54:29;7.38;;;3.97;;
25299;SDS011;13241;51.208;4.432;2022-08-19T11:56:57;6.25;;;4.03;;
25299;SDS011;13241;51.208;4.432;2022-08-19T11:59:24;14.98;;;5.28;;
25299;SDS011;13241;51.208;4.432;2022-08-19T12:01:53;8.35;;;3.65;;
25299;SDS011;13241;51.208;4.432;2022-08-19T12:04:22;13.65;;;3.88;;
25299;SDS011;13241;51.208;4.432;2022-08-19T12:06:50;26.13;;;4.50;;
25299;SDS011;13241;51.208;4.432;2022-08-19T12:09:19;9.77;;;4.20;;
25299;SDS011;13241;51.208;4.432;2022-08-19T12:11:57;13.02;;;3.00;;
25299;SDS011;13241;51.208;4.432;2022-08-19T12:14:24;8.13;;;3.13;;
25299;SDS011;13241;51.208;4.432;2022-08-19T12:16:51;6.05;;;2.55;;
25299;SDS011;13241;51.208;4.432;2022-08-19T12:19:18;11.00;;;2.90;;
25299;SDS011;13241;51.208;4.432;2022-08-19T12:21:48;18.23;;;2.80;;
25299;SDS011;13241;51.208;4.432;2022-08-19T12:24:15;11.57;;;2.50;;
25299;SDS011;13241;51.208;4.432;2022-08-19T12:26:48;6.55;;;2.95;;
25299;SDS011;13241;51.208;4.432;2022-08-19T12:29:18;3.08;;;2.10;;
25299;SDS011;13241;51.208;4.432;2022-08-19T12:31:49;3.15;;;1.88;;
25299;SDS011;13241;51.208;4.432;2022-08-19T12:34:16;20.27;;;2.10;;
25299;SDS011;13241;51.208;4.432;2022-08-19T12:36:49;5.82;;;2.45;;
25299;SDS011;13241;51.208;4.432;2022-08-19T12:39:16;11.95;;;3.50;;
25299;SDS011;13241;51.208;4.432;2022-08-19T12:41:43;32.85;;;5.93;;
25299;SDS011;13241;51.208;4.432;2022-08-19T12:44:20;25.45;;;3.67;;
25299;SDS011;13241;51.208;4.432;2022-08-19T12:46:55;107.22;;;17.83;;
25299;SDS011;13241;51.208;4.432;2022-08-19T12:49:23;64.55;;;12.10;;
25299;SDS011;13241;51.208;4.432;2022-08-19T12:52:11;4.18;;;2.42;;
25299;SDS011;13241;51.208;4.432;2022-08-19T12:54:42;10.13;;;2.75;;
25299;SDS011;13241;51.208;4.432;2022-08-19T12:57:10;19.27;;;5.07;;
25299;SDS011;13241;51.208;4.432;2022-08-19T12:59:37;142.93;;;12.60;;
25299;SDS011;13241;51.208;4.432;2022-08-19T13:02:05;19.52;;;3.25;;
25299;SDS011;13241;51.208;4.432;2022-08-19T13:04:33;29.52;;;3.28;;
25299;SDS011;13241;51.208;4.432;2022-08-19T13:09:35;7.63;;;2.08;;
25299;SDS011;13241;51.208;4.432;2022-08-19T13:12:02;7.22;;;1.90;;
25299;SDS011;13241;51.208;4.432;2022-08-19T13:14:34;13.65;;;2.50;;
25299;SDS011;13241;51.208;4.432;2022-08-19T13:17:02;7.38;;;3.65;;
25299;SDS011;13241;51.208;4.432;2022-08-19T13:19:29;12.95;;;4.25;;
25299;SDS011;13241;51.208;4.432;2022-08-19T13:21:58;5.32;;;2.70;;
25299;SDS011;13241;51.208;4.432;2022-08-19T13:24:25;13.05;;;2.55;;
25299;SDS011;13241;51.208;4.432;2022-08-19T13:26:59;10.20;;;2.60;;
25299;SDS011;13241;51.208;4.432;2022-08-19T13:29:26;12.80;;;1.98;;
25299;SDS011;13241;51.208;4.432;2022-08-19T13:32:12;7.93;;;1.90;;
25299;SDS011;13241;51.208;4.432;2022-08-19T13:34:58;11.45;;;2.55;;
25299;SDS011;13241;51.208;4.432;2022-08-19T13:37:25;13.07;;;2.45;;
25299;SDS011;13241;51.208;4.432;2022-08-19T13:40:18;4.32;;;1.58;;
25299;SDS011;13241;51.208;4.432;2022-08-19T13:42:51;3.05;;;1.73;;
25299;SDS011;13241;51.208;4.432;2022-08-19T13:45:21;3.92;;;2.42;;
25299;SDS011;13241;51.208;4.432;2022-08-19T13:47:51;6.82;;;1.83;;
25299;SDS011;13241;51.208;4.432;2022-08-19T13:50:26;6.72;;;1.25;;
25299;SDS011;13241;51.208;4.432;2022-08-19T13:52:55;1.90;;;1.35;;
25299;SDS011;13241;51.208;4.432;2022-08-19T13:55:22;13.65;;;1.75;;
25299;SDS011;13241;51.208;4.432;2022-08-19T13:57:51;5.18;;;1.23;;
25299;SDS011;13241;51.208;4.432;2022-08-19T14:00:23;27.77;;;2.30;;
25299;SDS011;13241;51.208;4.432;2022-08-19T14:02:53;22.27;;;2.38;;
25299;SDS011;13241;51.208;4.432;2022-08-19T14:05:22;22.17;;;2.42;;
25299;SDS011;13241;51.208;4.432;2022-08-19T14:07:50;4.30;;;1.65;;
25299;SDS011;13241;51.208;4.432;2022-08-19T14:10:18;1.92;;;1.30;;
25299;SDS011;13241;51.208;4.432;2022-08-19T14:12:46;5.10;;;2.50;;
25299;SDS011;13241;51.208;4.432;2022-08-19T14:15:14;15.90;;;2.30;;
25299;SDS011;13241;51.208;4.432;2022-08-19T14:17:42;29.92;;;5.18;;
25299;SDS011;13241;51.208;4.432;2022-08-19T14:20:11;6.93;;;2.10;;
25299;SDS011;13241;51.208;4.432;2022-08-19T14:22:44;3.92;;;1.98;;
25299;SDS011;13241;51.208;4.432;2022-08-19T14:25:18;8.38;;;1.67;;
25299;SDS011;13241;51.208;4.432;2022-08-19T14:27:47;18.02;;;2.60;;
25299;SDS011;13241;51.208;4.432;2022-08-19T14:30:16;6.78;;;1.67;;
25299;SDS011;13241;51.208;4.432;2022-08-19T14:32:48;5.90;;;1.42;;
25299;SDS011;13241;51.208;4.432;2022-08-19T14:35:15;2.03;;;1.55;;
25299;SDS011;13241;51.208;4.432;2022-08-19T14:37:43;7.50;;;1.70;;
25299;SDS011;13241;51.208;4.432;2022-08-19T14:40:12;3.38;;;1.45;;
25299;SDS011;13241;51.208;4.432;2022-08-19T14:42:41;1.38;;;0.93;;
25299;SDS011;13241;51.208;4.432;2022-08-19T14:45:10;16.30;;;3.55;;
25299;SDS011;13241;51.208;4.432;2022-08-19T14:47:38;2.67;;;0.95;;
25299;SDS011;13241;51.208;4.432;2022-08-19T14:50:10;5.05;;;0.80;;
25299;SDS011;13241;51.208;4.432;2022-08-19T14:52:46;1.45;;;1.23;;
25299;SDS011;13241;51.208;4.432;2022-08-19T14:55:15;0.95;;;0.75;;
25299;SDS011;13241;51.208;4.432;2022-08-19T14:57:44;1.10;;;0.68;;
25299;SDS011;13241;51.208;4.432;2022-08-19T15:00:11;1.15;;;0.82;;
25299;SDS011;13241;51.208;4.432;2022-08-19T15:02:40;5.95;;;1.13;;
25299;SDS011;13241;51.208;4.432;2022-08-19T15:05:08;2.33;;;0.77;;
25299;SDS011;13241;51.208;4.432;2022-08-19T15:07:35;1.95;;;0.82;;
25299;SDS011;13241;51.208;4.432;2022-08-19T15:10:03;1.00;;;0.77;;
25299;SDS011;13241;51.208;4.432;2022-08-19T15:12:36;1.67;;;0.90;;
25299;SDS011;13241;51.208;4.432;2022-08-19T15:15:07;8.18;;;1.55;;
25299;SDS011;13241;51.208;4.432;2022-08-19T15:17:39;4.13;;;1.00;;
25299;SDS011;13241;51.208;4.432;2022-08-19T15:20:16;1.90;;;1.10;;
25299;SDS011;13241;51.208;4.432;2022-08-19T15:22:45;3.15;;;1.30;;